Time;durP1;ratioP1;P1;durP2;ratioP2;P2;SDS_P1;SDS_P2;PMS_P1;PMS_P2;Temp;Humidity;BMP_temperature;BMP_pressure;BME280_temperature;BME280_humidity;BME280_pressure;Samples;Min_cycle;Max_cycle;Signal;HPM_P1;HPM_P2
2023/03/16 00:00:12;;;;;;;12.18;4.60;;;;;;;5.66;100.00;101540.59;5004547;28;20058;-70
2023/03/16 00:02:40;;;;;;;13.52;4.75;;;;;;;5.66;100.00;101534.28;5005309;28;20056;-73
2023/03/16 00:05:09;;;;;;;11.75;4.28;;;;;;;5.58;100.00;101538.78;5004744;28;20475;-74
2023/03/16 00:07:36;;;;;;;15.63;4.82;;;;;;;5.60;100.00;101528.22;5004631;28;20069;-73
2023/03/16 00:10:03;;;;;;;12.70;3.92;;;;;;;5.60;100.00;101530.97;5005979;28;20050;-72
2023/03/16 00:12:33;;;;;;;13.48;4.43;;;;;;;5.56;100.00;101535.56;5003065;28;20057;-74
2023/03/16 00:15:00;;;;;;;15.38;4.18;;;;;;;5.52;100.00;101529.16;5001775;28;20110;-73
2023/03/16 00:17:27;;;;;;;7.07;2.97;;;;;;;5.57;100.00;101519.91;5004613;28;20050;-73
2023/03/16 00:19:56;;;;;;;8.68;2.47;;;;;;;5.47;100.00;101523.09;5001329;28;20511;-72
2023/03/16 00:22:28;;;;;;;11.18;4.63;;;;;;;5.52;100.00;101517.38;4998224;28;20626;-73
2023/03/16 00:24:55;;;;;;;11.25;4.40;;;;;;;5.48;100.00;101514.53;5003133;28;20240;-74
2023/03/16 00:27:24;;;;;;;11.23;3.22;;;;;;;5.63;100.00;101510.28;5000828;28;20061;-74
2023/03/16 00:29:55;;;;;;;10.43;3.60;;;;;;;5.60;100.00;101519.22;5002433;28;20076;-77
2023/03/16 00:32:31;;;;;;;6.78;2.40;;;;;;;5.68;100.00;101526.50;5004740;28;20050;-74
2023/03/16 00:34:58;;;;;;;12.80;3.72;;;;;;;5.56;100.00;101523.78;5002743;28;20069;-75
2023/03/16 00:37:26;;;;;;;4.90;1.90;;;;;;;5.65;100.00;101525.25;5004027;28;20057;-74
2023/03/16 00:39:56;;;;;;;9.07;3.30;;;;;;;5.55;100.00;101524.91;5003752;28;20049;-75
2023/03/16 00:42:28;;;;;;;11.20;4.72;;;;;;;5.65;100.00;101516.22;5002271;28;20630;-72
2023/03/16 00:44:56;;;;;;;10.18;3.72;;;;;;;5.93;100.00;101512.44;5005699;28;20141;-74
2023/03/16 00:47:28;;;;;;;10.48;4.47;;;;;;;5.71;100.00;101509.34;5002760;28;20160;-73
2023/03/16 00:49:56;;;;;;;7.40;3.17;;;;;;;5.62;100.00;101511.41;5001051;28;20049;-73
2023/03/16 00:52:23;;;;;;;13.63;4.35;;;;;;;5.67;100.00;101500.22;4997778;28;20418;-77
2023/03/16 00:54:52;;;;;;;5.03;2.63;;;;;;;5.57;100.00;101520.69;5001398;28;20117;-74
2023/03/16 00:57:21;;;;;;;9.63;4.15;;;;;;;6.11;100.00;101512.97;5000879;28;20189;-73
2023/03/16 00:59:48;;;;;;;5.82;1.95;;;;;;;5.72;100.00;101532.91;5004216;28;20059;-74
2023/03/16 01:02:18;;;;;;;4.35;1.65;;;;;;;5.58;100.00;101533.28;5001988;28;20049;-74
2023/03/16 01:04:44;;;;;;;9.82;3.78;;;;;;;5.64;100.00;101536.59;5001908;28;20064;-74
2023/03/16 01:07:13;;;;;;;12.35;4.45;;;;;;;5.65;100.00;101538.19;5004834;28;20527;-74
2023/03/16 01:09:41;;;;;;;6.75;1.38;;;;;;;5.56;100.00;101532.81;5004909;28;20061;-76
2023/03/16 01:12:18;;;;;;;15.20;4.95;;;;;;;5.65;100.00;101521.72;5001034;28;20049;-75
2023/03/16 01:14:45;;;;;;;11.75;3.92;;;;;;;5.63;100.00;101508.31;4998442;28;20464;-73
2023/03/16 01:17:14;;;;;;;12.27;3.97;;;;;;;5.64;100.00;101509.13;5000265;28;20047;-74
2023/03/16 01:19:40;;;;;;;10.13;3.63;;;;;;;5.60;100.00;101492.53;5003473;28;20065;-71
2023/03/16 01:22:08;;;;;;;11.23;3.85;;;;;;;5.70;100.00;101502.28;5003485;28;20046;-69
2023/03/16 01:24:35;;;;;;;10.50;4.10;;;;;;;5.66;100.00;101487.59;5001869;28;20135;-73
2023/03/16 01:27:03;;;;;;;12.68;4.43;;;;;;;5.71;100.00;101490.94;5003431;28;20076;-73
2023/03/16 01:29:31;;;;;;;13.05;4.30;;;;;;;5.76;100.00;101496.19;5002571;28;20338;-76
2023/03/16 01:31:59;;;;;;;5.00;2.17;;;;;;;5.67;100.00;101487.25;5003782;28;20108;-75
2023/03/16 01:34:25;;;;;;;13.20;5.05;;;;;;;5.81;100.00;101487.75;5001456;28;20089;-75
2023/03/16 01:36:52;;;;;;;10.95;3.22;;;;;;;5.89;100.00;101477.75;4999434;28;20081;-74
2023/03/16 01:39:19;;;;;;;12.75;4.43;;;;;;;5.85;100.00;101469.44;5003475;28;20060;-74
2023/03/16 01:41:46;;;;;;;4.95;2.30;;;;;;;5.73;100.00;101463.91;5003533;28;20508;-73
2023/03/16 01:44:16;;;;;;;11.95;2.72;;;;;;;5.86;100.00;101470.22;5004055;28;20054;-71
2023/03/16 01:46:43;;;;;;;12.60;4.25;;;;;;;5.86;100.00;101448.22;5002551;28;20050;-75
2023/03/16 01:49:19;;;;;;;10.25;4.47;;;;;;;5.90;100.00;101457.41;5004215;28;20050;-76
2023/03/16 01:51:58;;;;;;;11.00;4.25;;;;;;;5.91;100.00;101453.50;5004322;28;20495;-75
2023/03/16 01:54:45;;;;;;;12.65;2.97;;;;;;;5.87;100.00;101455.34;5002996;28;20046;-75
2023/03/16 01:57:21;;;;;;;8.98;3.38;;;;;;;5.91;100.00;101459.81;5000777;28;20038;-71
2023/03/16 02:00:32;;;;;;;7.18;2.95;;;;;;;5.93;100.00;101459.44;5004092;28;20137;-76
2023/03/16 02:03:34;;;;;;;4.25;1.85;;;;;;;5.81;100.00;101459.44;4977899;28;20078;-76
2023/03/16 02:06:14;;;;;;;6.53;2.95;;;;;;;6.13;100.00;101444.72;4977354;28;20042;-74
2023/03/16 02:08:44;;;;;;;12.07;4.28;;;;;;;5.95;100.00;101437.91;4985713;28;20061;-74
2023/03/16 02:11:11;;;;;;;6.68;2.95;;;;;;;5.93;100.00;101430.03;4989399;28;20058;-73
2023/03/16 02:13:38;;;;;;;11.38;3.72;;;;;;;5.89;100.00;101442.06;4979680;28;20371;-72
2023/03/16 02:16:07;;;;;;;9.50;3.80;;;;;;;5.91;100.00;101439.75;4964501;28;20074;-73
2023/03/16 02:18:34;;;;;;;12.82;4.35;;;;;;;5.92;100.00;101425.69;4984495;28;20057;-74
2023/03/16 02:21:24;;;;;;;11.02;3.47;;;;;;;5.89;100.00;101439.31;4981586;28;20544;-74
2023/03/16 02:23:51;;;;;;;12.05;4.57;;;;;;;5.89;100.00;101423.63;4985562;28;20536;-74
2023/03/16 02:26:32;;;;;;;5.43;1.52;;;;;;;5.79;100.00;101418.59;4986034;28;20050;-76
2023/03/16 02:29:28;;;;;;;9.02;3.63;;;;;;;5.88;100.00;101411.06;4984260;28;20050;-74
2023/03/16 02:31:56;;;;;;;10.05;3.47;;;;;;;5.81;100.00;101399.88;4987213;28;20054;-76
2023/03/16 02:34:24;;;;;;;9.35;3.58;;;;;;;5.86;100.00;101415.28;4985988;28;20057;-72
2023/03/16 02:36:52;;;;;;;10.02;3.70;;;;;;;5.89;100.00;101398.09;4985384;28;20141;-73
2023/03/16 02:39:19;;;;;;;4.45;2.10;;;;;;;5.76;100.00;101413.78;4999474;28;20049;-74
2023/03/16 02:41:46;;;;;;;8.15;3.40;;;;;;;10.33;100.00;101411.72;5010257;28;20048;-74
2023/03/16 02:44:17;;;;;;;7.75;3.30;;;;;;;10.25;96.98;101401.78;5009983;28;20045;-74
2023/03/16 02:46:45;;;;;;;13.60;4.20;;;;;;;10.49;96.05;101411.50;5010594;28;20045;-74
2023/03/16 02:49:24;;;;;;;1.23;1.05;;;;;;;10.28;94.71;101412.09;5007425;28;20099;-75
2023/03/16 02:51:52;;;;;;;3.55;1.60;;;;;;;9.91;95.15;101413.97;5009336;28;20058;-74
2023/03/16 02:54:22;;;;;;;13.30;4.20;;;;;;;9.97;96.10;101409.72;5010181;28;20053;-74
2023/03/16 02:56:49;;;;;;;11.52;3.50;;;;;;;9.27;98.76;101416.22;5010628;28;20514;-74
2023/03/16 02:59:15;;;;;;;6.85;2.95;;;;;;;7.97;100.00;101397.34;5011048;28;20487;-73
2023/03/16 03:01:42;;;;;;;7.45;2.78;;;;;;;9.00;100.00;101400.78;5008902;28;20049;-74
2023/03/16 03:04:08;;;;;;;13.40;3.63;;;;;;;8.41;100.00;101384.84;5008007;28;20042;-73
2023/03/16 03:06:35;;;;;;;11.65;4.10;;;;;;;7.68;100.00;101390.44;5008382;28;20048;-74
2023/03/16 03:09:03;;;;;;;13.65;3.80;;;;;;;7.58;100.00;101391.00;5011164;28;20050;-74
2023/03/16 03:11:30;;;;;;;14.45;4.10;;;;;;;8.06;100.00;101386.88;5002672;28;20046;-74
2023/03/16 03:13:56;;;;;;;9.80;3.00;;;;;;;8.45;100.00;101382.13;5008696;28;20145;-74
2023/03/16 03:16:23;;;;;;;8.90;3.42;;;;;;;9.72;100.00;101380.94;5005197;28;20046;-75
2023/03/16 03:18:51;;;;;;;9.15;3.10;;;;;;;9.65;100.00;101378.09;5005594;28;20097;-73
2023/03/16 03:21:18;;;;;;;11.52;3.45;;;;;;;8.09;100.00;101366.06;5008909;28;20054;-73
2023/03/16 03:23:45;;;;;;;10.00;3.42;;;;;;;9.31;100.00;101378.41;5008913;28;20060;-73
2023/03/16 03:26:14;;;;;;;12.25;4.20;;;;;;;7.58;100.00;101368.16;5009375;28;20484;-74
2023/03/16 03:28:41;;;;;;;9.38;3.63;;;;;;;7.38;100.00;101364.59;5008579;28;20049;-74
2023/03/16 03:31:21;;;;;;;7.25;3.28;;;;;;;8.23;100.00;101361.63;5008454;28;20097;-74
2023/03/16 03:33:48;;;;;;;5.30;2.38;;;;;;;8.16;100.00;101366.22;5008130;28;20101;-75
2023/03/16 03:36:14;;;;;;;4.25;1.48;;;;;;;9.52;100.00;101365.69;5008929;28;20038;-75
2023/03/16 03:38:41;;;;;;;11.60;4.03;;;;;;;8.81;100.00;101363.03;5009412;28;20403;-71
2023/03/16 03:41:07;;;;;;;14.80;4.30;;;;;;;9.61;100.00;101376.44;5009323;28;20250;-73
2023/03/16 03:43:34;;;;;;;7.95;2.70;;;;;;;9.85;95.42;101371.25;5009170;28;20046;-73
2023/03/16 03:46:02;;;;;;;9.10;3.50;;;;;;;9.08;99.55;101377.69;5008583;28;20046;-73
2023/03/16 03:48:29;;;;;;;11.52;3.35;;;;;;;10.77;94.17;101375.00;5009179;28;20045;-73
2023/03/16 03:50:56;;;;;;;6.63;2.30;;;;;;;10.26;94.77;101370.16;5000814;28;20473;-74
2023/03/16 03:53:23;;;;;;;7.93;2.92;;;;;;;10.86;91.84;101365.19;5006634;28;20049;-73
2023/03/16 03:55:49;;;;;;;10.50;3.55;;;;;;;10.67;93.16;101361.84;5007719;28;20153;-73
2023/03/16 03:58:16;;;;;;;1.80;1.50;;;;;;;10.45;91.11;101367.22;5011437;28;20052;-75
2023/03/16 04:00:43;;;;;;;6.88;2.58;;;;;;;9.56;96.11;101351.94;5008432;28;20403;-73
2023/03/16 04:03:10;;;;;;;8.25;3.50;;;;;;;10.33;93.55;101358.38;5008718;28;20493;-73
2023/03/16 04:05:36;;;;;;;6.45;3.08;;;;;;;9.96;95.99;101355.56;5004514;28;20408;-73
2023/03/16 04:08:03;;;;;;;10.82;3.30;;;;;;;10.30;95.41;101351.63;5008204;28;20060;-73
2023/03/16 04:10:30;;;;;;;10.05;3.25;;;;;;;10.39;93.33;101356.84;5007767;28;20052;-74
2023/03/16 04:12:57;;;;;;;6.00;2.50;;;;;;;9.36;97.86;101340.22;5010651;28;20085;-75
2023/03/16 04:15:25;;;;;;;8.18;2.97;;;;;;;9.08;100.00;101344.56;5007747;28;20805;-72
2023/03/16 04:17:51;;;;;;;6.22;2.25;;;;;;;8.54;100.00;101342.09;5008852;28;20073;-73
2023/03/16 04:20:19;;;;;;;4.38;1.80;;;;;;;9.31;98.03;101329.50;5008560;28;20781;-74
2023/03/16 04:22:46;;;;;;;8.02;3.45;;;;;;;8.97;99.45;101332.53;5008914;28;20057;-73
2023/03/16 04:25:15;;;;;;;6.85;2.05;;;;;;;9.78;96.05;101328.91;5008209;28;20096;-74
2023/03/16 04:27:42;;;;;;;3.67;1.45;;;;;;;9.22;95.49;101331.72;5007495;28;20042;-74
2023/03/16 04:30:12;;;;;;;12.38;3.55;;;;;;;9.05;99.63;101329.50;5006037;28;20068;-72
2023/03/16 04:32:40;;;;;;;7.05;2.83;;;;;;;9.33;97.87;101323.59;5007143;28;20120;-75
2023/03/16 04:35:08;;;;;;;9.82;3.30;;;;;;;9.85;96.22;101317.94;5008303;28;20448;-73
2023/03/16 04:37:35;;;;;;;7.95;3.40;;;;;;;9.16;98.88;101313.09;5008446;28;20132;-73
2023/03/16 04:40:10;;;;;;;7.30;3.08;;;;;;;9.55;98.03;101309.69;5007491;28;20065;-74
2023/03/16 04:42:37;;;;;;;9.68;3.63;;;;;;;8.87;99.21;101306.38;5007331;28;20471;-73
2023/03/16 04:45:03;;;;;;;3.60;2.08;;;;;;;8.98;100.00;101315.59;5007201;28;20046;-74
2023/03/16 04:47:32;;;;;;;7.22;3.33;;;;;;;8.78;100.00;101308.59;5007518;28;20113;-73
2023/03/16 04:50:02;;;;;;;4.38;2.13;;;;;;;9.77;97.78;101311.53;5001381;28;20057;-74
2023/03/16 04:52:29;;;;;;;5.07;2.15;;;;;;;8.73;100.00;101306.16;5007874;28;20060;-73
2023/03/16 04:54:56;;;;;;;6.32;2.38;;;;;;;9.94;96.48;101310.94;5008605;28;20465;-75
2023/03/16 04:57:23;;;;;;;9.23;2.67;;;;;;;8.45;100.00;101300.19;5007537;28;20049;-74
2023/03/16 04:59:50;;;;;;;10.23;3.22;;;;;;;9.13;99.71;101309.13;5007418;28;20049;-73
2023/03/16 05:02:18;;;;;;;11.30;2.70;;;;;;;10.44;94.46;101309.47;5006885;28;20045;-74
2023/03/16 05:04:45;;;;;;;12.68;3.95;;;;;;;10.37;94.17;101304.66;5007271;28;20100;-75
2023/03/16 05:07:11;;;;;;;7.32;3.10;;;;;;;10.14;94.13;101306.84;5012896;28;20067;-73
2023/03/16 05:09:38;;;;;;;5.85;2.85;;;;;;;9.66;95.85;101296.00;5006968;28;20146;-72
2023/03/16 05:12:04;;;;;;;2.58;1.25;;;;;;;8.65;99.89;101314.69;5007426;28;20053;-75
2023/03/16 05:14:31;;;;;;;11.88;3.67;;;;;;;10.15;96.17;101308.41;5005009;28;20052;-73
2023/03/16 05:16:57;;;;;;;9.88;3.47;;;;;;;10.30;93.74;101295.53;5006952;28;20042;-75
2023/03/16 05:19:24;;;;;;;8.45;2.88;;;;;;;9.41;95.64;101298.47;5004914;28;20534;-75
2023/03/16 05:21:50;;;;;;;9.68;3.38;;;;;;;8.95;99.32;101302.56;5007898;28;20638;-70
2023/03/16 05:24:17;;;;;;;7.57;3.20;;;;;;;9.84;96.62;101302.53;5007067;28;20053;-75
2023/03/16 05:26:43;;;;;;;8.75;3.42;;;;;;;10.72;93.76;101298.63;5006912;28;20431;-74
2023/03/16 05:29:10;;;;;;;11.70;3.75;;;;;;;10.67;93.23;101300.97;5005942;28;20057;-74
2023/03/16 05:31:37;;;;;;;11.18;3.63;;;;;;;9.56;97.22;101289.19;5006643;28;20112;-74
2023/03/16 05:34:03;;;;;;;7.18;2.08;;;;;;;10.07;95.48;101301.25;5007357;28;20469;-74
2023/03/16 05:36:30;;;;;;;10.55;3.10;;;;;;;9.79;95.28;101294.59;5002781;28;20060;-74
2023/03/16 05:38:58;;;;;;;7.03;3.15;;;;;;;9.67;97.68;101300.34;5006499;28;20172;-69
2023/03/16 05:41:24;;;;;;;12.50;3.92;;;;;;;10.22;96.37;101302.16;5005598;28;20606;-72
2023/03/16 05:43:51;;;;;;;9.50;3.13;;;;;;;9.50;99.43;101301.75;5007090;28;20145;-73
2023/03/16 05:46:18;;;;;;;8.75;3.92;;;;;;;9.54;98.74;101305.34;5006801;28;20049;-69
2023/03/16 05:48:46;;;;;;;8.07;2.85;;;;;;;9.57;100.00;101289.97;5007418;28;20045;-75
2023/03/16 05:51:13;;;;;;;8.38;3.22;;;;;;;10.66;95.06;101305.69;5011162;28;20053;-73
2023/03/16 05:53:39;;;;;;;13.05;4.03;;;;;;;10.89;94.53;101313.78;5007703;28;20080;-73
2023/03/16 05:56:06;;;;;;;4.20;1.83;;;;;;;8.91;99.61;101307.22;5006452;28;20456;-73
2023/03/16 05:58:33;;;;;;;11.55;5.22;;;;;;;9.05;100.00;101306.66;5010046;28;20046;-74
2023/03/16 06:01:04;;;;;;;7.93;2.25;;;;;;;9.14;100.00;101313.47;5011518;28;20057;-73
2023/03/16 06:03:30;;;;;;;4.20;1.92;;;;;;;10.21;97.29;101315.22;5011163;28;20052;-72
2023/03/16 06:05:57;;;;;;;14.48;4.53;;;;;;;10.47;95.76;101306.72;5009758;28;20054;-72
2023/03/16 06:08:23;;;;;;;11.90;4.90;;;;;;;8.22;100.00;101299.41;5010952;28;20050;-73
2023/03/16 06:10:50;;;;;;;11.75;4.40;;;;;;;9.49;100.00;101310.41;5009282;28;20050;-72
2023/03/16 06:13:16;;;;;;;10.13;3.53;;;;;;;10.22;97.91;101302.97;5009557;28;20490;-74
2023/03/16 06:15:43;;;;;;;5.05;2.70;;;;;;;10.46;94.60;101310.69;5010451;28;20042;-73
2023/03/16 06:18:09;;;;;;;9.38;3.80;;;;;;;10.23;96.60;101304.53;5009365;28;20072;-74
2023/03/16 06:20:36;;;;;;;16.55;4.35;;;;;;;10.94;94.71;101317.00;5011029;28;20141;-72
2023/03/16 06:23:03;;;;;;;13.10;3.92;;;;;;;9.94;96.93;101302.66;5011406;28;20057;-74
2023/03/16 06:25:30;;;;;;;3.05;1.58;;;;;;;10.42;94.93;101298.00;5010054;28;20050;-73
2023/03/16 06:27:56;;;;;;;1.20;0.98;;;;;;;10.13;95.34;101307.22;5008797;28;20046;-73
2023/03/16 06:30:23;;;;;;;8.82;3.88;;;;;;;10.46;95.01;101315.41;5009904;28;20049;-75
2023/03/16 06:32:50;;;;;;;12.77;4.50;;;;;;;9.95;96.93;101307.00;5010536;28;20387;-73
2023/03/16 06:35:17;;;;;;;12.50;4.55;;;;;;;10.26;95.97;101309.31;5022775;28;20129;-72
2023/03/16 06:37:44;;;;;;;11.32;4.43;;;;;;;8.83;100.00;101297.25;5010083;28;20503;-74
2023/03/16 06:40:11;;;;;;;12.13;4.97;;;;;;;8.75;100.00;101300.28;5010143;28;20164;-73
2023/03/16 06:42:37;;;;;;;3.10;2.15;;;;;;;9.31;99.92;101309.34;5010375;28;20064;-74
2023/03/16 06:45:05;;;;;;;7.88;3.42;;;;;;;8.99;100.00;101297.09;5010907;28;20050;-74
2023/03/16 06:47:32;;;;;;;5.95;2.03;;;;;;;10.51;94.55;101301.25;5014176;28;20072;-73
2023/03/16 06:49:58;;;;;;;6.45;2.42;;;;;;;10.52;92.92;101304.81;5006895;28;20124;-74
2023/03/16 06:52:25;;;;;;;10.07;3.83;;;;;;;11.89;87.91;101306.41;5009563;28;20060;-72
2023/03/16 06:54:51;;;;;;;6.40;3.10;;;;;;;11.35;89.12;101307.34;5013524;28;20068;-70
2023/03/16 06:57:18;;;;;;;6.97;2.70;;;;;;;11.05;89.64;101308.75;5007697;28;20740;-75
2023/03/16 06:59:44;;;;;;;10.05;3.08;;;;;;;10.00;92.14;101298.34;5008122;28;20615;-73
2023/03/16 07:02:12;;;;;;;9.73;4.15;;;;;;;11.10;90.82;101308.41;5008037;28;20049;-70
2023/03/16 07:04:40;;;;;;;5.45;2.22;;;;;;;11.00;90.75;101304.38;5009374;28;20050;-72
2023/03/16 07:07:07;;;;;;;4.38;2.17;;;;;;;10.99;90.64;101301.97;5009590;28;20581;-73
2023/03/16 07:09:34;;;;;;;4.20;1.95;;;;;;;10.25;91.07;101304.16;5004318;28;20133;-74
2023/03/16 07:12:05;;;;;;;10.05;3.95;;;;;;;10.60;92.28;101310.03;5008994;28;20058;-74
2023/03/16 07:14:31;;;;;;;8.75;3.53;;;;;;;10.57;90.49;101297.72;5009912;28;20093;-73
2023/03/16 07:16:58;;;;;;;6.40;2.58;;;;;;;10.92;90.15;101302.75;5009323;28;20419;-71
2023/03/16 07:19:24;;;;;;;6.35;2.53;;;;;;;10.43;91.87;101303.16;5009542;28;20491;-75
2023/03/16 07:21:51;;;;;;;4.55;2.13;;;;;;;10.76;90.52;101310.53;5009329;28;20511;-70
2023/03/16 07:24:18;;;;;;;11.10;4.13;;;;;;;11.26;89.88;101306.09;5006600;28;20132;-75
2023/03/16 07:26:45;;;;;;;10.65;4.00;;;;;;;11.19;89.32;101312.41;5010002;28;20064;-74
2023/03/16 07:29:13;;;;;;;6.10;2.22;;;;;;;11.18;89.12;101310.03;5009126;28;20052;-74
2023/03/16 07:31:39;;;;;;;8.98;2.85;;;;;;;11.50;87.04;101320.09;5008501;28;20054;-73
2023/03/16 07:34:06;;;;;;;9.43;3.72;;;;;;;11.75;84.89;101317.47;5007315;28;20104;-71
2023/03/16 07:36:32;;;;;;;6.78;2.42;;;;;;;11.40;86.71;101322.78;5008206;28;20168;-70
2023/03/16 07:39:00;;;;;;;4.60;1.85;;;;;;;10.59;89.55;101329.78;5005216;28;20100;-73
2023/03/16 07:41:26;;;;;;;5.43;2.45;;;;;;;10.76;89.25;101327.13;5008302;28;20441;-73
2023/03/16 07:43:53;;;;;;;8.73;3.15;;;;;;;11.80;86.39;101328.97;5007129;28;20053;-72
2023/03/16 07:46:19;;;;;;;8.77;2.85;;;;;;;11.30;86.58;101324.34;5008492;28;20053;-71
2023/03/16 07:48:46;;;;;;;7.95;3.55;;;;;;;12.13;83.80;101316.75;5008660;28;20124;-72
2023/03/16 07:51:13;;;;;;;6.68;2.65;;;;;;;11.79;82.41;101321.03;5006293;28;20133;-69
2023/03/16 07:53:40;;;;;;;0.93;0.90;;;;;;;8.16;100.00;101317.38;5008950;28;20522;-70
2023/03/16 07:56:07;;;;;;;11.20;4.30;;;;;;;7.98;100.00;101332.78;5004477;28;20050;-71
2023/03/16 07:58:34;;;;;;;8.60;3.50;;;;;;;7.75;100.00;101323.66;5005503;28;20056;-70
2023/03/16 08:01:01;;;;;;;10.23;4.10;;;;;;;8.18;100.00;101323.31;5006315;28;20578;-70
2023/03/16 08:03:28;;;;;;;3.38;1.70;;;;;;;11.84;88.82;101335.31;5010468;28;20133;-71
2023/03/16 08:05:55;;;;;;;9.88;3.60;;;;;;;12.35;84.17;101321.16;5006351;28;20683;-71
2023/03/16 08:08:22;;;;;;;2.88;1.55;;;;;;;12.86;82.69;101324.38;5003246;28;20082;-71
2023/03/16 08:10:51;;;;;;;8.25;2.53;;;;;;;11.27;84.83;101304.94;5008907;28;20050;-71
2023/03/16 08:13:21;;;;;;;3.67;1.77;;;;;;;11.62;91.23;101311.47;5008947;28;20064;-72
2023/03/16 08:15:54;;;;;;;7.90;2.75;;;;;;;11.12;89.84;101303.25;5004464;28;20058;-70
2023/03/16 08:18:22;;;;;;;12.27;4.57;;;;;;;12.12;87.37;101309.63;5007278;28;20045;-70
2023/03/16 08:20:49;;;;;;;9.88;4.13;;;;;;;13.04;81.10;101305.72;5008346;28;20064;-69
2023/03/16 08:23:16;;;;;;;6.07;2.63;;;;;;;12.34;81.29;101294.59;5005763;28;20088;-72
2023/03/16 08:25:42;;;;;;;5.07;2.53;;;;;;;12.94;78.33;101296.19;5008624;28;20046;-72
2023/03/16 08:28:09;;;;;;;9.18;4.03;;;;;;;13.58;76.08;101299.59;5007483;28;20361;-70
2023/03/16 08:30:36;;;;;;;8.00;3.00;;;;;;;13.13;77.00;101300.50;5007636;28;20133;-68
2023/03/16 08:33:03;;;;;;;9.52;3.90;;;;;;;12.56;79.09;101302.53;5006197;28;20071;-71
2023/03/16 08:35:29;;;;;;;6.25;2.25;;;;;;;11.54;85.43;101295.94;5000976;28;20133;-72
2023/03/16 08:37:56;;;;;;;9.43;3.50;;;;;;;12.37;82.28;101296.59;5003983;28;20519;-70
2023/03/16 08:40:23;;;;;;;9.73;2.42;;;;;;;12.69;79.27;101305.72;5005426;28;20046;-70
2023/03/16 08:42:51;;;;;;;7.88;3.08;;;;;;;12.48;81.36;101305.69;5004822;28;20054;-71
2023/03/16 08:45:18;;;;;;;4.95;1.98;;;;;;;12.18;82.00;101302.50;5008047;28;20144;-72
2023/03/16 08:47:45;;;;;;;5.25;2.10;;;;;;;12.42;81.71;101310.84;5006499;28;20116;-74
2023/03/16 08:50:12;;;;;;;7.20;2.80;;;;;;;12.66;81.92;101312.06;5009541;28;20089;-72
2023/03/16 08:52:39;;;;;;;3.53;1.75;;;;;;;12.29;80.30;101314.44;5007914;28;20041;-71
2023/03/16 08:55:08;;;;;;;6.70;3.30;;;;;;;13.11;79.59;101316.81;5002983;28;20064;-72
2023/03/16 08:57:36;;;;;;;4.65;1.80;;;;;;;12.22;80.79;101315.19;5009393;28;20045;-71
2023/03/16 09:00:11;;;;;;;5.55;2.05;;;;;;;12.33;81.58;101327.13;5004924;28;20043;-71
2023/03/16 09:02:41;;;;;;;8.60;3.63;;;;;;;10.91;87.77;101316.97;5001542;28;20046;-71
2023/03/16 09:05:10;;;;;;;4.57;1.98;;;;;;;12.65;79.99;101325.16;4999802;28;20136;-71
2023/03/16 09:07:38;;;;;;;7.32;2.90;;;;;;;12.45;80.67;101323.94;5004365;28;20073;-73
2023/03/16 09:10:10;;;;;;;9.65;3.17;;;;;;;12.80;78.46;101318.38;5003377;28;20164;-70
2023/03/16 09:12:37;;;;;;;17.10;3.90;;;;;;;12.47;80.17;101318.00;5001671;28;20065;-71
2023/03/16 09:15:04;;;;;;;9.20;3.90;;;;;;;12.60;81.74;101319.19;5006944;28;20431;-71
2023/03/16 09:17:32;;;;;;;3.65;1.52;;;;;;;12.46;80.98;101317.19;5005249;28;20117;-70
2023/03/16 09:19:59;;;;;;;8.20;3.63;;;;;;;12.57;79.61;101325.53;5005405;28;20050;-73
2023/03/16 09:22:46;;;;;;;6.03;2.75;;;;;;;12.04;82.20;101319.91;4992396;28;20053;-71
2023/03/16 09:25:14;;;;;;;7.50;2.75;;;;;;;11.68;86.17;101311.88;4994511;28;20065;-71
2023/03/16 09:27:41;;;;;;;4.03;1.98;;;;;;;12.52;80.96;101320.41;4999765;28;20048;-71
2023/03/16 09:30:09;;;;;;;13.57;4.55;;;;;;;11.96;84.09;101314.75;4998770;28;20416;-71
2023/03/16 09:32:36;;;;;;;13.82;4.00;;;;;;;13.11;79.32;101321.56;5000920;28;20880;-70
2023/03/16 09:35:05;;;;;;;6.00;3.00;;;;;;;12.97;77.68;101325.13;5003552;28;20077;-70
2023/03/16 09:37:32;;;;;;;8.32;3.80;;;;;;;13.17;79.13;101314.41;5000727;28;20049;-71
2023/03/16 09:40:27;;;;;;;17.25;4.97;;;;;;;13.37;78.37;101308.00;4998244;28;20053;-72
2023/03/16 09:43:21;;;;;;;11.88;4.18;;;;;;;13.18;76.91;101318.75;5001203;28;20049;-71
2023/03/16 09:46:14;;;;;;;10.07;4.47;;;;;;;13.66;77.61;101314.25;5000148;28;20062;-71
2023/03/16 09:48:41;;;;;;;10.80;4.05;;;;;;;13.69;77.90;101307.88;5003236;28;20136;-70
2023/03/16 09:51:22;;;;;;;7.55;3.50;;;;;;;13.45;75.52;101304.00;5000927;28;20053;-73
2023/03/16 09:53:55;;;;;;;14.70;5.03;;;;;;;13.80;75.15;101306.63;4998293;28;20053;-72
2023/03/16 09:56:30;;;;;;;9.50;3.42;;;;;;;14.08;75.13;101297.34;5002073;28;20045;-71
2023/03/16 09:58:57;;;;;;;;;;;;;;;13.76;71.74;101316.97;5001931;28;20046;-71
2023/03/16 10:01:55;;;;;;;12.27;3.60;;;;;;;13.75;72.08;101306.25;4999024;28;20024;-72
2023/03/16 10:04:40;;;;;;;6.80;3.15;;;;;;;13.74;71.04;101313.81;4996146;28;20046;-71
2023/03/16 10:07:11;;;;;;;8.32;3.33;;;;;;;14.07;71.59;101304.88;5000958;28;20590;-72
2023/03/16 10:10:10;;;;;;;12.43;3.85;;;;;;;13.95;72.14;101304.56;5001884;28;20120;-74
2023/03/16 10:12:42;;;;;;;7.20;3.10;;;;;;;14.10;72.02;101298.50;5005079;28;20148;-72
2023/03/16 10:15:15;;;;;;;11.88;4.80;;;;;;;14.57;73.66;101297.81;5002621;28;20046;-70
2023/03/16 10:18:01;;;;;;;10.55;4.25;;;;;;;14.38;72.68;101308.72;5003352;28;20104;-72
2023/03/16 10:20:33;;;;;;;11.05;4.53;;;;;;;15.50;66.98;101294.47;5001011;28;20046;-70
2023/03/16 10:23:12;;;;;;;12.60;5.68;;;;;;;14.82;69.04;101287.22;5002193;28;20127;-71
2023/03/16 10:25:47;;;;;;;12.20;4.70;;;;;;;14.43;72.90;101285.97;5000730;28;20046;-70
2023/03/16 10:28:17;;;;;;;8.98;3.28;;;;;;;14.15;75.36;101286.97;5001372;28;20161;-71
2023/03/16 10:30:45;;;;;;;11.50;4.38;;;;;;;14.80;73.32;101289.66;5002973;28;20046;-71
2023/03/16 10:33:31;;;;;;;12.38;4.15;;;;;;;15.33;67.47;101298.25;5001286;28;20133;-70
2023/03/16 10:36:12;;;;;;;15.68;5.70;;;;;;;14.84;71.42;101284.84;5002342;28;20169;-69
2023/03/16 10:38:47;;;;;;;13.05;4.53;;;;;;;14.56;75.85;101289.84;4997582;28;20045;-71
2023/03/16 10:41:16;;;;;;;15.02;5.28;;;;;;;14.65;74.92;101288.19;5000395;28;20144;-70
2023/03/16 10:43:44;;;;;;;10.50;4.70;;;;;;;14.83;73.23;101283.25;5003242;28;20075;-72
2023/03/16 10:46:10;;;;;;;10.35;4.10;;;;;;;14.63;73.45;101287.00;5006728;28;20777;-70
2023/03/16 10:48:41;;;;;;;11.35;4.45;;;;;;;14.54;73.90;101279.13;5005185;28;20049;-71
2023/03/16 10:51:13;;;;;;;13.65;5.18;;;;;;;14.26;73.25;101276.56;5003065;28;20165;-72
2023/03/16 10:53:43;;;;;;;7.50;3.25;;;;;;;14.35;74.57;101264.97;5005594;28;20145;-70
2023/03/16 10:56:18;;;;;;;14.30;5.25;;;;;;;14.56;73.59;101254.47;5005966;28;20077;-72
2023/03/16 10:58:45;;;;;;;12.43;5.25;;;;;;;14.69;75.92;101244.41;5006632;28;20058;-73
2023/03/16 11:01:22;;;;;;;4.15;1.92;;;;;;;14.65;72.34;101243.63;5006874;28;20050;-73
2023/03/16 11:03:52;;;;;;;16.85;4.00;;;;;;;14.89;73.54;101239.03;5006736;28;20061;-72
2023/03/16 11:06:25;;;;;;;13.80;4.35;;;;;;;15.52;71.52;101234.72;5005009;28;20324;-74
2023/03/16 11:08:53;;;;;;;9.35;3.20;;;;;;;14.99;71.40;101213.81;5014311;28;20049;-74
2023/03/16 11:11:32;;;;;;;15.05;5.00;;;;;;;14.98;77.00;101211.44;5003200;28;20049;-70
2023/03/16 11:14:01;;;;;;;16.38;4.70;;;;;;;15.58;73.94;101214.31;5008142;28;20060;-71
2023/03/16 11:16:29;;;;;;;13.48;4.43;;;;;;;15.84;72.35;101213.53;5007687;28;20500;-72
2023/03/16 11:18:59;;;;;;;11.88;4.00;;;;;;;15.95;68.19;101213.38;5005988;28;20056;-72
2023/03/16 11:21:35;;;;;;;11.23;4.53;;;;;;;15.03;79.15;101211.78;5005332;28;20143;-70
2023/03/16 11:24:04;;;;;;;12.82;5.30;;;;;;;15.93;77.96;101210.22;4998781;28;20057;-71
2023/03/16 11:26:38;;;;;;;12.13;4.22;;;;;;;15.56;75.63;101204.78;5004014;28;20133;-72
2023/03/16 11:29:12;;;;;;;13.47;5.00;;;;;;;15.43;76.61;101196.97;5001647;28;20054;-73
2023/03/16 11:31:48;;;;;;;11.48;4.03;;;;;;;16.76;64.57;101198.84;5017736;28;20050;-72